createdAt,value
2022-09-15T00:02:25.163Z,98388.06
2022-09-15T00:04:51.674Z,98391.38
2022-09-15T00:07:18.392Z,98393.81
2022-09-15T00:09:44.955Z,98396.97
2022-09-15T00:12:11.416Z,98397.41
2022-09-15T00:14:37.951Z,98390.19
2022-09-15T00:17:04.554Z,98400.34
2022-09-15T00:19:30.996Z,98398.09
2022-09-15T00:21:57.619Z,98402.19
2022-09-15T00:24:24.085Z,98403.88
2022-09-15T00:26:50.602Z,98402.38
2022-09-15T00:29:17.130Z,98394.34
2022-09-15T00:31:43.527Z,98401.56
2022-09-15T00:34:13.560Z,98403.44
2022-09-15T00:36:40.137Z,98402.97
2022-09-15T00:39:06.491Z,98407.31
2022-09-15T00:41:32.977Z,98397.16
2022-09-15T00:44:02.241Z,98407.31
2022-09-15T00:46:39.015Z,98395.88
2022-09-15T00:49:10.707Z,98396.72
2022-09-15T00:51:52.366Z,98405.50
2022-09-15T00:54:25.132Z,98409.84
2022-09-15T00:56:54.529Z,98411.66
2022-09-15T00:59:26.414Z,98405.22
2022-09-15T01:02:01.915Z,98406.19
2022-09-15T01:04:28.469Z,98407.47
2022-09-15T01:06:58.835Z,98408.50
2022-09-15T01:09:38.511Z,98410.81
2022-09-15T01:12:05.581Z,98417.41
2022-09-15T01:14:32.079Z,98417.81
2022-09-15T01:17:03.794Z,98419.56
2022-09-15T01:19:40.803Z,98425.59
2022-09-15T01:22:25.801Z,98417.41
2022-09-15T01:25:18.724Z,98415.97
2022-09-15T01:28:14.005Z,98411.94
2022-09-15T01:30:52.497Z,98420.25
2022-09-15T01:33:27.526Z,98417.75
2022-09-15T01:36:05.533Z,98420.06
2022-09-15T01:38:38.187Z,98421.47
2022-09-15T01:41:18.368Z,98420.25
2022-09-15T01:43:53.474Z,98414.81
2022-09-15T01:46:22.897Z,98423.53
2022-09-15T01:48:50.532Z,98422.50
2022-09-15T01:51:18.269Z,98423.53
2022-09-15T01:53:47.057Z,98420.84
2022-09-15T01:56:13.686Z,98417.50
2022-09-15T01:58:41.524Z,98424.28
2022-09-15T02:01:29.612Z,98414.53
2022-09-15T02:04:04.664Z,98420.69
2022-09-15T02:06:44.883Z,98421.59
2022-09-15T02:09:14.763Z,98415.53
2022-09-15T02:11:53.968Z,98420.13
2022-09-15T02:14:36.167Z,98419.25
2022-09-15T02:17:05.380Z,98415.38
2022-09-15T02:19:46.784Z,98426.09
2022-09-15T02:22:23.451Z,98424.53
2022-09-15T02:24:58.327Z,98418.47
2022-09-15T02:27:29.124Z,98427.41
2022-09-15T02:30:01.259Z,98428.97
2022-09-15T02:32:30.669Z,98426.97
2022-09-15T02:34:59.041Z,98421.94
2022-09-15T02:37:27.299Z,98418.88
2022-09-15T02:40:00.040Z,98416.72
2022-09-15T02:42:31.921Z,98413.38
2022-09-15T02:45:00.890Z,98417.66
2022-09-15T02:47:28.372Z,98421.41
2022-09-15T02:49:55.539Z,98414.31
2022-09-15T02:52:22.171Z,98426.25
2022-09-15T02:54:48.795Z,98419.53
2022-09-15T02:57:15.467Z,98414.91
2022-09-15T03:00:00.776Z,98415.28
2022-09-15T03:02:27.407Z,98425.06
2022-09-15T03:04:53.929Z,98424.78
2022-09-15T03:07:20.333Z,98430.91
2022-09-15T03:09:47.219Z,98429.72
2022-09-15T03:12:13.726Z,98432.22
2022-09-15T03:14:40.246Z,98431.19
2022-09-15T03:17:06.634Z,98449.59
2022-09-15T03:19:33.007Z,98441.31
2022-09-15T03:21:59.536Z,98441.88
2022-09-15T03:24:25.972Z,98432.31
2022-09-15T03:26:52.380Z,98436.47
2022-09-15T03:29:18.898Z,98439.00
2022-09-15T03:31:45.339Z,98440.75
2022-09-15T03:34:11.921Z,98446.44
2022-09-15T03:36:38.438Z,98443.63
2022-09-15T03:39:05.060Z,98456.09
2022-09-15T03:41:31.521Z,98451.53
2022-09-15T03:43:58.099Z,98448.56
2022-09-15T03:46:24.500Z,98454.59
2022-09-15T03:48:50.923Z,98454.31
2022-09-15T03:51:17.433Z,98454.81
2022-09-15T03:53:44.001Z,98456.00
2022-09-15T03:56:19.350Z,98449.38
2022-09-15T03:58:45.815Z,98456.38
2022-09-15T04:01:12.548Z,98451.97
2022-09-15T04:03:45.161Z,98448.94
2022-09-15T04:06:13.369Z,98448.56
2022-09-15T04:08:39.826Z,98453.00
2022-09-15T04:11:11.207Z,98451.66
2022-09-15T04:13:39.758Z,98450.38
2022-09-15T04:16:11.440Z,98447.84
2022-09-15T04:18:40.245Z,98450.84
2022-09-15T04:21:11.412Z,98448.31
2022-09-15T04:23:37.926Z,98452.72
2022-09-15T04:26:08.289Z,98451.47
2022-09-15T04:28:37.751Z,98465.31
2022-09-15T04:31:10.338Z,98458.25
2022-09-15T04:33:39.489Z,98465.84
2022-09-15T04:36:11.992Z,98459.63
2022-09-15T04:38:38.754Z,98457.41
2022-09-15T04:41:06.275Z,98448.97
2022-09-15T04:43:33.700Z,98462.63
2022-09-15T04:46:00.205Z,98458.06
2022-09-15T04:48:26.869Z,98463.28
2022-09-15T04:50:53.999Z,98457.88
2022-09-15T04:53:20.689Z,98464.56
2022-09-15T04:55:47.098Z,98475.72
2022-09-15T04:58:13.786Z,98461.69
2022-09-15T05:00:45.654Z,98459.19
2022-09-15T05:03:14.146Z,98471.66
2022-09-15T05:05:41.279Z,98474.34
2022-09-15T05:08:08.226Z,98472.47
2022-09-15T05:10:35.196Z,98481.22
2022-09-15T05:13:01.747Z,98480.38
2022-09-15T05:15:28.119Z,98493.50
2022-09-15T05:17:54.646Z,98489.78
2022-09-15T05:20:21.045Z,98489.41
2022-09-15T05:22:47.482Z,98494.50
2022-09-15T05:25:14.139Z,98483.91
2022-09-15T05:27:40.566Z,98479.31
2022-09-15T05:30:35.165Z,98485.13
2022-09-15T05:32:54.182Z,98476.56
2022-09-15T05:35:20.795Z,98477.03
2022-09-15T05:37:47.228Z,98482.88
2022-09-15T05:40:13.841Z,98486.41
2022-09-15T05:42:40.380Z,98488.56
2022-09-15T05:45:07.560Z,98484.41
2022-09-15T05:47:34.101Z,98487.75
2022-09-15T05:50:00.535Z,98489.78
2022-09-15T05:52:26.953Z,98491.91
2022-09-15T05:54:58.312Z,98493.59
2022-09-15T05:57:25.505Z,98498.81
2022-09-15T05:59:51.977Z,98500.78
2022-09-15T06:02:18.534Z,98500.44
2022-09-15T06:04:45.033Z,98497.19
2022-09-15T06:07:11.429Z,98494.69
2022-09-15T06:09:38.004Z,98498.78
2022-09-15T06:12:04.874Z,98497.72
2022-09-15T06:14:31.291Z,98498.78
2022-09-15T06:16:57.741Z,98496.38
2022-09-15T06:19:24.262Z,98489.66
2022-09-15T06:21:51.036Z,98492.09
2022-09-15T06:24:17.458Z,98495.78
2022-09-15T06:26:44.015Z,98495.25
2022-09-15T06:29:13.537Z,98500.09
2022-09-15T06:31:40.417Z,98497.84
2022-09-15T06:34:06.875Z,98500.06
2022-09-15T06:36:33.623Z,98497.56
2022-09-15T06:39:00.349Z,98503.53
2022-09-15T06:41:38.281Z,98494.88
2022-09-15T06:44:13.809Z,98498.44
2022-09-15T06:46:40.420Z,98504.75
2022-09-15T06:49:07.036Z,98507.34
2022-09-15T06:51:35.570Z,98510.31
2022-09-15T06:54:03.120Z,98511.63
2022-09-15T06:56:32.453Z,98510.19
2022-09-15T06:59:01.071Z,98510.47
2022-09-15T07:01:30.131Z,98505.28
2022-09-15T07:03:58.773Z,98517.38
2022-09-15T07:06:28.873Z,98522.31
2022-09-15T07:08:55.413Z,98523.25
2022-09-15T07:11:21.786Z,98524.72
2022-09-15T07:13:51.531Z,98520.91
2022-09-15T07:16:19.460Z,98521.09
2022-09-15T07:18:47.340Z,98531.50
2022-09-15T07:21:16.599Z,98526.56
2022-09-15T07:23:44.014Z,98521.72
2022-09-15T07:26:21.008Z,98532.47
2022-09-15T07:28:50.342Z,98529.38
2022-09-15T07:31:19.781Z,98530.78
2022-09-15T07:33:46.678Z,98537.00
2022-09-15T07:36:13.459Z,98545.28
2022-09-15T07:38:43.066Z,98547.25
2022-09-15T07:41:13.823Z,98548.66
2022-09-15T07:43:40.566Z,98545.28
2022-09-15T07:46:07.293Z,98555.34
2022-09-15T07:48:33.838Z,98552.38
2022-09-15T07:51:00.262Z,98555.34
2022-09-15T07:53:30.676Z,98569.75
2022-09-15T07:55:57.568Z,98568.94
2022-09-15T07:58:24.829Z,98574.97
2022-09-15T08:00:51.283Z,98568.16
2022-09-15T08:03:17.897Z,98568.84
2022-09-15T08:05:45.731Z,98573.94
2022-09-15T08:08:12.483Z,98575.63
2022-09-15T08:10:42.621Z,98571.50
2022-09-15T08:13:09.046Z,98566.09
2022-09-15T08:15:37.503Z,98572.13
2022-09-15T08:18:05.567Z,98578.94
2022-09-15T08:20:32.573Z,98582.22
2022-09-15T08:22:59.099Z,98577.47
2022-09-15T08:25:25.749Z,98579.53
2022-09-15T08:27:54.022Z,98583.97
2022-09-15T08:30:21.273Z,98578.38
2022-09-15T08:32:48.445Z,98580.41
2022-09-15T08:35:16.143Z,98577.00
2022-09-15T08:37:42.770Z,98577.81
2022-09-15T08:40:27.352Z,98580.34
2022-09-15T08:42:57.703Z,98576.06
2022-09-15T08:45:28.626Z,98589.41
2022-09-15T08:48:00.179Z,98588.13
2022-09-15T08:50:32.144Z,98576.88
2022-09-15T08:53:06.663Z,98580.78
2022-09-15T08:55:48.359Z,98580.94
2022-09-15T08:58:24.595Z,98583.88
2022-09-15T09:01:11.520Z,98594.31
2022-09-15T09:03:44.192Z,98592.63
2022-09-15T09:06:32.511Z,98589.75
2022-09-15T09:09:11.682Z,98592.97
2022-09-15T09:11:59.279Z,98590.13
2022-09-15T09:14:28.740Z,98593.78
2022-09-15T09:17:24.452Z,98592.69
2022-09-15T09:19:59.253Z,98577.00
2022-09-15T09:22:31.587Z,98574.50
2022-09-15T09:25:11.591Z,98579.78
2022-09-15T09:27:43.303Z,98575.84
2022-09-15T09:30:17.513Z,98568.69
2022-09-15T09:32:49.406Z,98585.81
2022-09-15T09:35:42.315Z,98581.72
2022-09-15T09:38:10.538Z,98588.16
2022-09-15T09:40:40.373Z,98592.94
2022-09-15T09:43:08.694Z,98591.09
2022-09-15T09:45:35.296Z,98588.91
2022-09-15T09:48:23.845Z,98598.00
2022-09-15T09:50:50.801Z,98588.03
2022-09-15T09:53:26.080Z,98586.56
2022-09-15T09:55:55.183Z,98586.19
2022-09-15T09:58:24.887Z,98585.13
2022-09-15T10:00:52.743Z,98588.25
2022-09-15T10:03:28.028Z,98596.84
2022-09-15T10:06:12.975Z,98578.97
2022-09-15T10:08:58.024Z,98578.56
2022-09-15T10:12:00.461Z,98573.56
2022-09-15T10:14:37.524Z,98566.63
2022-09-15T10:17:18.214Z,98576.06
2022-09-15T10:19:58.704Z,98569.81
2022-09-15T10:22:39.834Z,98572.72
2022-09-15T10:25:21.331Z,98574.72
2022-09-15T10:28:14.477Z,98577.59
2022-09-15T10:31:06.050Z,98587.16
2022-09-15T10:33:35.381Z,98584.25
2022-09-15T10:36:08.202Z,98584.91
2022-09-15T10:38:42.235Z,98574.19
2022-09-15T10:41:31.374Z,98574.63
2022-09-15T10:44:16.229Z,98559.41
2022-09-15T10:46:54.681Z,98571.53
2022-09-15T10:49:28.713Z,98571.75
2022-09-15T10:52:32.270Z,98560.47
2022-09-15T10:55:13.908Z,98564.03
2022-09-15T10:58:18.284Z,98562.38
2022-09-15T11:00:56.729Z,98557.34
2022-09-15T11:03:30.882Z,98559.84
2022-09-15T11:06:09.471Z,98560.06
2022-09-15T11:09:11.340Z,98562.78
2022-09-15T11:11:55.909Z,98556.28
2022-09-15T11:14:34.649Z,98554.84
2022-09-15T11:17:21.379Z,98550.66
2022-09-15T11:20:05.884Z,98552.34
2022-09-15T11:22:41.296Z,98552.53
2022-09-15T11:25:20.416Z,98555.03
2022-09-15T11:28:11.855Z,98550.00
2022-09-15T11:30:47.793Z,98550.22
2022-09-15T11:33:32.944Z,98547.09
2022-09-15T11:36:09.669Z,98554.81
2022-09-15T11:38:52.837Z,98548.16
2022-09-15T11:41:50.918Z,98559.22
2022-09-15T11:44:39.061Z,98556.28
2022-09-15T11:47:23.800Z,98564.03
2022-09-15T11:50:08.736Z,98566.53
2022-09-15T11:52:50.408Z,98571.13
2022-09-15T11:55:38.163Z,98578.22
2022-09-15T11:58:22.277Z,98575.28
2022-09-15T12:01:12.286Z,98580.72
2022-09-15T12:03:59.492Z,98596.59
2022-09-15T12:06:34.860Z,98586.94
2022-09-15T12:09:04.544Z,98588.63
2022-09-15T12:11:42.975Z,98576.53
2022-09-15T12:14:16.275Z,98579.03
2022-09-15T12:16:44.396Z,98580.31
2022-09-15T12:19:22.017Z,98569.41
2022-09-15T12:22:06.573Z,98562.72
2022-09-15T12:24:45.906Z,98560.81
2022-09-15T12:27:17.563Z,98564.81
2022-09-15T12:29:54.913Z,98560.63
2022-09-15T12:32:29.688Z,98570.72
2022-09-15T12:35:00.132Z,98568.84
2022-09-15T12:37:50.799Z,98576.97
2022-09-15T12:40:36.668Z,98575.94
2022-09-15T12:43:18.778Z,98583.84
2022-09-15T12:46:00.202Z,98579.06
2022-09-15T12:48:36.432Z,98571.13
2022-09-15T12:51:10.358Z,98578.00
2022-09-15T12:53:46.360Z,98573.00
2022-09-15T12:56:26.317Z,98576.72
2022-09-15T12:58:54.161Z,98573.13
2022-09-15T13:01:24.361Z,98568.66
2022-09-15T13:03:50.855Z,98585.34
2022-09-15T13:06:29.757Z,98556.50
2022-09-15T13:09:02.047Z,98562.97
2022-09-15T13:11:34.683Z,98560.16
2022-09-15T13:14:06.545Z,98568.31
2022-09-15T13:16:45.637Z,98567.50
2022-09-15T13:19:33.371Z,98565.84
2022-09-15T13:22:12.050Z,98566.56
2022-09-15T13:25:01.667Z,98559.19
2022-09-15T13:27:34.584Z,98566.41
2022-09-15T13:30:17.187Z,98561.50
2022-09-15T13:32:56.121Z,98573.38
2022-09-15T13:35:40.837Z,98564.44
2022-09-15T13:38:39.737Z,98569.03
2022-09-15T13:41:41.467Z,98573.63
2022-09-15T13:44:35.101Z,98568.41
2022-09-15T13:47:16.984Z,98568.19
2022-09-15T13:50:02.592Z,98552.53
2022-09-15T13:52:46.542Z,98558.19
2022-09-15T13:55:21.473Z,98551.06
2022-09-15T14:01:06.853Z,98538.88
2022-09-15T14:03:37.265Z,98533.94
2022-09-15T14:06:16.725Z,98543.03
2022-09-15T14:08:45.911Z,98541.63
2022-09-15T14:11:15.511Z,98542.41
2022-09-15T14:13:46.313Z,98546.44
2022-09-15T14:16:34.307Z,98542.03
2022-09-15T14:19:03.759Z,98548.53
2022-09-15T14:21:33.046Z,98534.69
2022-09-15T14:24:04.367Z,98543.53
2022-09-15T14:26:33.383Z,98538.50
2022-09-15T14:29:02.618Z,98537.22
2022-09-15T14:31:35.493Z,98535.56
2022-09-15T14:34:06.276Z,98531.78
2022-09-15T14:36:33.979Z,98533.50
2022-09-15T14:39:12.697Z,98533.56
2022-09-15T14:41:40.167Z,98540.22
2022-09-15T14:45:54.126Z,98549.41
2022-09-15T14:47:26.462Z,98541.88
2022-09-15T14:50:13.661Z,98535.22
2022-09-15T14:53:01.826Z,98542.31
2022-09-15T14:55:30.523Z,98545.63
2022-09-15T14:58:14.959Z,98546.91
2022-09-15T15:00:54.746Z,98549.00
2022-09-15T15:03:31.683Z,98559.84
2022-09-15T15:06:28.909Z,98554.84
2022-09-15T15:09:18.500Z,98562.75
2022-09-15T15:11:45.850Z,98569.44
2022-09-15T15:14:14.254Z,98569.22
2022-09-15T15:16:52.239Z,98570.66
2022-09-15T15:19:30.821Z,98569.38
2022-09-15T15:22:26.785Z,98577.28
2022-09-15T15:24:53.662Z,98571.38
2022-09-15T15:27:32.308Z,98569.13
2022-09-15T15:30:30.824Z,98574.34
2022-09-15T15:32:57.405Z,98584.25
2022-09-15T15:35:24.677Z,98582.56
2022-09-15T15:38:05.289Z,98588.78
2022-09-15T15:40:33.472Z,98599.81
2022-09-15T15:43:12.219Z,98602.53
2022-09-15T15:45:49.908Z,98601.63
2022-09-15T15:48:16.546Z,98611.78
2022-09-15T15:50:43.408Z,98604.25
2022-09-15T15:53:09.797Z,98616.91
2022-09-15T15:55:40.212Z,98620.00
2022-09-15T15:58:07.410Z,98625.13
2022-09-15T16:00:40.013Z,98626.28
2022-09-15T16:03:07.068Z,98630.06
2022-09-15T16:05:34.125Z,98630.00
2022-09-15T16:08:04.759Z,98632.16
2022-09-15T16:10:38.933Z,98623.78
2022-09-15T16:13:05.349Z,98621.47
2022-09-15T16:15:31.718Z,98611.03
2022-09-15T16:17:58.180Z,98619.81
2022-09-15T16:20:25.058Z,98615.03
2022-09-15T16:22:52.053Z,98612.72
2022-09-15T16:25:29.056Z,98621.72
2022-09-15T16:27:55.585Z,98618.13
2022-09-15T16:30:22.136Z,98621.84
2022-09-15T16:32:48.506Z,98614.34
2022-09-15T16:35:24.179Z,98622.84
2022-09-15T16:37:50.697Z,98616.59
2022-09-15T16:40:17.865Z,98622.41
2022-09-15T16:42:45.054Z,98626.56
2022-09-15T16:45:24.260Z,98621.75
2022-09-15T16:47:52.705Z,98624.84
2022-09-15T16:50:19.083Z,98626.31
2022-09-15T16:52:45.720Z,98615.03
2022-09-15T16:55:37.155Z,98624.19
2022-09-15T16:58:04.952Z,98611.31
2022-09-15T17:00:37.089Z,98603.22
2022-09-15T17:03:07.497Z,98616.28
2022-09-15T17:05:39.827Z,98613.13
2022-09-15T17:08:08.673Z,98613.97
2022-09-15T17:10:36.961Z,98619.38
2022-09-15T17:13:04.162Z,98615.84
2022-09-15T17:15:39.455Z,98620.88
2022-09-15T17:18:07.804Z,98622.78
2022-09-15T17:20:39.116Z,98626.28
2022-09-15T17:23:37.002Z,98626.66
2022-09-15T17:26:09.429Z,98633.97
2022-09-15T17:28:36.632Z,98643.94
2022-09-15T17:31:15.187Z,98637.81
2022-09-15T17:33:42.572Z,98642.88
2022-09-15T17:36:08.973Z,98640.13
2022-09-15T17:38:35.738Z,98641.41
2022-09-15T17:41:02.686Z,98635.03
2022-09-15T17:43:30.797Z,98637.16
2022-09-15T17:45:57.418Z,98636.63
2022-09-15T17:48:24.583Z,98638.44
2022-09-15T17:50:51.392Z,98641.13
2022-09-15T17:53:23.437Z,98642.09
2022-09-15T17:55:51.066Z,98642.28
2022-09-15T17:58:18.626Z,98647.78
2022-09-15T18:00:45.957Z,98643.69
2022-09-15T18:03:28.695Z,98636.88
2022-09-15T18:05:58.262Z,98652.69
2022-09-15T18:08:25.511Z,98635.28
2022-09-15T18:10:51.922Z,98645.25
2022-09-15T18:13:26.434Z,98646.84
2022-09-15T18:15:53.990Z,98652.28
2022-09-15T18:18:23.785Z,98642.25
2022-09-15T18:20:53.132Z,98657.28
2022-09-15T18:23:24.806Z,98654.94
2022-09-15T18:25:51.610Z,98668.53
2022-09-15T18:28:18.699Z,98670.13
2022-09-15T18:30:47.812Z,98673.75
2022-09-15T18:33:20.207Z,98676.25
2022-09-15T18:35:48.864Z,98669.09
2022-09-15T18:38:16.320Z,98673.28
2022-09-15T18:40:48.889Z,98675.78
2022-09-15T18:43:16.118Z,98673.19
2022-09-15T18:45:42.734Z,98674.97
2022-09-15T18:48:12.706Z,98683.69
2022-09-15T18:50:40.610Z,98672.06
2022-09-15T18:53:07.521Z,98674.94
2022-09-15T18:55:33.990Z,98686.28
2022-09-15T18:58:01.268Z,98691.97
2022-09-15T19:00:28.739Z,98695.84
2022-09-15T19:03:00.103Z,98686.56
2022-09-15T19:05:28.008Z,98686.19
2022-09-15T19:07:55.232Z,98688.22
2022-09-15T19:10:22.792Z,98696.34
2022-09-15T19:12:49.474Z,98697.38
2022-09-15T19:15:15.875Z,98698.75
2022-09-15T19:17:43.323Z,98690.81
2022-09-15T19:20:13.232Z,98693.41
2022-09-15T19:22:40.784Z,98697.78
2022-09-15T19:25:08.804Z,98705.19
2022-09-15T19:27:35.589Z,98707.59
2022-09-15T19:30:02.008Z,98705.25
2022-09-15T19:32:28.485Z,98711.28
2022-09-15T19:34:54.973Z,98707.00
2022-09-15T19:37:22.475Z,98698.81
2022-09-15T19:39:53.317Z,98701.16
2022-09-15T19:42:19.988Z,98699.09
2022-09-15T19:44:47.724Z,98696.78
2022-09-15T19:47:14.113Z,98695.94
2022-09-15T19:49:40.532Z,98696.03
2022-09-15T19:52:07.256Z,98697.72
2022-09-15T19:54:34.399Z,98695.50
2022-09-15T19:57:01.749Z,98708.06
2022-09-15T19:59:31.625Z,98698.81
2022-09-15T20:02:00.047Z,98706.53
2022-09-15T20:04:27.643Z,98702.19
2022-09-15T20:06:54.095Z,98706.06
2022-09-15T20:09:20.530Z,98696.31
2022-09-15T20:11:47.107Z,98696.78
2022-09-15T20:14:14.070Z,98700.75
2022-09-15T20:16:41.107Z,98702.44
2022-09-15T20:19:07.578Z,98707.00
2022-09-15T20:21:49.683Z,98713.03
2022-09-15T20:24:17.370Z,98707.28
2022-09-15T20:26:44.869Z,98704.31
2022-09-15T20:29:11.429Z,98708.22
2022-09-15T20:31:38.007Z,98714.00
2022-09-15T20:34:04.511Z,98724.25
2022-09-15T20:36:33.382Z,98727.38
2022-09-15T20:39:00.910Z,98732.28
2022-09-15T20:41:28.328Z,98730.59
2022-09-15T20:43:55.087Z,98732.09
2022-09-15T20:46:23.804Z,98734.97
2022-09-15T20:48:51.482Z,98735.69
2022-09-15T20:51:27.778Z,98737.22
2022-09-15T20:53:56.164Z,98734.69
2022-09-15T20:56:25.585Z,98721.72
2022-09-15T20:58:57.652Z,98734.22
2022-09-15T21:01:27.092Z,98740.44
2022-09-15T21:03:55.198Z,98742.97
2022-09-15T21:06:27.501Z,98741.66
2022-09-15T21:08:55.584Z,98737.13
2022-09-15T21:11:23.863Z,98731.44
2022-09-15T21:13:51.829Z,98740.56
2022-09-15T21:16:21.386Z,98735.41
2022-09-15T21:18:49.242Z,98736.31
2022-09-15T21:21:21.547Z,98738.66
2022-09-15T21:23:51.164Z,98737.13
2022-09-15T21:26:19.908Z,98733.13
2022-09-15T21:28:46.829Z,98739.34
2022-09-15T21:31:18.746Z,98745.59
2022-09-15T21:33:46.672Z,98753.38
2022-09-15T21:36:17.353Z,98748.19
2022-09-15T21:38:44.640Z,98749.19
2022-09-15T21:41:14.284Z,98750.41
2022-09-15T21:43:43.042Z,98743.50
2022-09-15T21:46:13.360Z,98751.72
2022-09-15T21:48:41.799Z,98755.97
2022-09-15T21:51:10.389Z,98763.59
2022-09-15T21:53:37.684Z,98761.72
2022-09-15T21:56:06.317Z,98763.38
2022-09-15T21:58:38.926Z,98768.28
2022-09-15T22:01:20.560Z,98757.00
2022-09-15T22:03:50.606Z,98770.50
2022-09-15T22:06:18.548Z,98767.81
2022-09-15T22:08:45.439Z,98769.84
2022-09-15T22:11:12.536Z,98769.19
2022-09-15T22:13:41.159Z,98767.00
2022-09-15T22:16:15.948Z,98767.66
2022-09-15T22:18:43.299Z,98759.75
2022-09-15T22:21:13.894Z,98766.53
2022-09-15T22:23:41.040Z,98771.06
2022-09-15T22:26:14.090Z,98764.50
2022-09-15T22:28:40.888Z,98766.34
2022-09-15T22:31:10.140Z,98767.19
2022-09-15T22:33:37.657Z,98768.75
2022-09-15T22:36:05.951Z,98769.28
2022-09-15T22:38:32.421Z,98772.97
2022-09-15T22:41:05.010Z,98776.03
2022-09-15T22:43:31.762Z,98775.19
2022-09-15T22:45:58.153Z,98766.63
2022-09-15T22:48:24.592Z,98776.75
2022-09-15T22:50:50.991Z,98778.06
2022-09-15T22:53:17.426Z,98781.38
2022-09-15T22:55:43.859Z,98777.72
2022-09-15T22:58:10.378Z,98787.63
2022-09-15T23:00:38.227Z,98779.59
2022-09-15T23:03:05.764Z,98778.56
2022-09-15T23:05:32.612Z,98778.88
2022-09-15T23:07:59.029Z,98782.97
2022-09-15T23:10:26.529Z,98780.13
2022-09-15T23:12:53.006Z,98783.31
2022-09-15T23:15:19.843Z,98780.25
2022-09-15T23:17:49.563Z,98788.34
2022-09-15T23:20:16.114Z,98786.00
2022-09-15T23:22:42.763Z,98787.19
2022-09-15T23:25:09.286Z,98781.28
2022-09-15T23:27:35.898Z,98785.34
2022-09-15T23:30:02.277Z,98786.34
2022-09-15T23:32:28.661Z,98781.50
2022-09-15T23:34:57.213Z,98772.72
2022-09-15T23:37:23.640Z,98775.97
2022-09-15T23:39:50.117Z,98781.84
2022-09-15T23:42:18.860Z,98772.22
2022-09-15T23:44:45.770Z,98766.88
2022-09-15T23:47:12.198Z,98772.41
2022-09-15T23:49:38.770Z,98775.66
2022-09-15T23:52:05.180Z,98779.72
2022-09-15T23:54:31.742Z,98774.34
2022-09-15T23:56:58.117Z,98777.69
2022-09-15T23:59:24.705Z,98775.34
